sensor_id;sensor_type;location;lat;lon;timestamp;P1;durP1;ratioP1;P2;durP2;ratioP2
13475;SDS011;6810;63.824;20.288;2023-07-30T00:00:56;5.63;;;3.97;;
13475;SDS011;6810;63.824;20.288;2023-07-30T00:03:23;4.77;;;4.00;;
13475;SDS011;6810;63.824;20.288;2023-07-30T00:05:51;3.77;;;3.47;;
13475;SDS011;6810;63.824;20.288;2023-07-30T00:08:19;3.23;;;2.93;;
13475;SDS011;6810;63.824;20.288;2023-07-30T00:10:47;3.63;;;3.33;;
13475;SDS011;6810;63.824;20.288;2023-07-30T00:13:14;3.63;;;3.37;;
13475;SDS011;6810;63.824;20.288;2023-07-30T00:15:41;3.20;;;2.97;;
13475;SDS011;6810;63.824;20.288;2023-07-30T00:18:08;4.10;;;3.00;;
13475;SDS011;6810;63.824;20.288;2023-07-30T00:20:36;3.50;;;3.20;;
13475;SDS011;6810;63.824;20.288;2023-07-30T00:23:03;3.30;;;3.00;;
13475;SDS011;6810;63.824;20.288;2023-07-30T00:25:30;3.40;;;3.10;;
13475;SDS011;6810;63.824;20.288;2023-07-30T00:27:57;3.37;;;3.03;;
13475;SDS011;6810;63.824;20.288;2023-07-30T00:30:24;3.30;;;3.00;;
13475;SDS011;6810;63.824;20.288;2023-07-30T00:32:51;3.57;;;3.10;;
13475;SDS011;6810;63.824;20.288;2023-07-30T00:35:19;3.47;;;3.03;;
13475;SDS011;6810;63.824;20.288;2023-07-30T00:37:46;3.97;;;2.83;;
13475;SDS011;6810;63.824;20.288;2023-07-30T00:40:13;3.20;;;2.90;;
13475;SDS011;6810;63.824;20.288;2023-07-30T00:42:40;5.07;;;4.57;;
13475;SDS011;6810;63.824;20.288;2023-07-30T00:45:07;4.00;;;3.70;;
13475;SDS011;6810;63.824;20.288;2023-07-30T00:47:36;5.67;;;3.73;;
13475;SDS011;6810;63.824;20.288;2023-07-30T00:50:05;4.30;;;3.90;;
13475;SDS011;6810;63.824;20.288;2023-07-30T00:52:34;3.40;;;3.10;;
13475;SDS011;6810;63.824;20.288;2023-07-30T00:55:02;3.37;;;3.07;;
13475;SDS011;6810;63.824;20.288;2023-07-30T00:57:30;3.83;;;3.03;;
13475;SDS011;6810;63.824;20.288;2023-07-30T00:59:58;3.00;;;2.80;;
13475;SDS011;6810;63.824;20.288;2023-07-30T01:02:25;2.80;;;2.60;;
13475;SDS011;6810;63.824;20.288;2023-07-30T01:04:54;2.90;;;2.70;;
13475;SDS011;6810;63.824;20.288;2023-07-30T01:07:22;3.23;;;2.93;;
13475;SDS011;6810;63.824;20.288;2023-07-30T01:09:49;3.37;;;2.87;;
13475;SDS011;6810;63.824;20.288;2023-07-30T01:12:16;3.60;;;2.80;;
13475;SDS011;6810;63.824;20.288;2023-07-30T01:14:44;3.77;;;3.40;;
13475;SDS011;6810;63.824;20.288;2023-07-30T01:17:13;3.10;;;2.90;;
13475;SDS011;6810;63.824;20.288;2023-07-30T01:19:40;3.23;;;3.03;;
13475;SDS011;6810;63.824;20.288;2023-07-30T01:22:27;2.93;;;2.73;;
13475;SDS011;6810;63.824;20.288;2023-07-30T01:25:14;3.77;;;2.70;;
13475;SDS011;6810;63.824;20.288;2023-07-30T01:28:03;3.37;;;2.80;;
13475;SDS011;6810;63.824;20.288;2023-07-30T01:30:51;5.77;;;3.30;;
13475;SDS011;6810;63.824;20.288;2023-07-30T01:33:39;2.80;;;2.60;;
13475;SDS011;6810;63.824;20.288;2023-07-30T01:36:27;3.30;;;2.90;;
13475;SDS011;6810;63.824;20.288;2023-07-30T01:39:15;3.30;;;3.00;;
13475;SDS011;6810;63.824;20.288;2023-07-30T01:42:03;3.13;;;2.93;;
13475;SDS011;6810;63.824;20.288;2023-07-30T01:44:50;3.17;;;2.90;;
13475;SDS011;6810;63.824;20.288;2023-07-30T01:47:37;3.47;;;2.63;;
13475;SDS011;6810;63.824;20.288;2023-07-30T01:50:24;3.97;;;2.90;;
13475;SDS011;6810;63.824;20.288;2023-07-30T01:53:11;2.90;;;2.70;;
13475;SDS011;6810;63.824;20.288;2023-07-30T01:55:58;3.30;;;3.00;;
13475;SDS011;6810;63.824;20.288;2023-07-30T01:58:45;3.73;;;3.17;;
13475;SDS011;6810;63.824;20.288;2023-07-30T02:01:32;4.03;;;3.00;;
13475;SDS011;6810;63.824;20.288;2023-07-30T02:04:19;3.60;;;3.23;;
13475;SDS011;6810;63.824;20.288;2023-07-30T02:07:06;3.43;;;3.07;;
13475;SDS011;6810;63.824;20.288;2023-07-30T02:09:54;3.53;;;2.80;;
13475;SDS011;6810;63.824;20.288;2023-07-30T02:12:41;3.83;;;2.80;;
13475;SDS011;6810;63.824;20.288;2023-07-30T02:15:28;3.60;;;3.30;;
13475;SDS011;6810;63.824;20.288;2023-07-30T02:18:15;3.47;;;3.10;;
13475;SDS011;6810;63.824;20.288;2023-07-30T02:21:02;3.20;;;2.90;;
13475;SDS011;6810;63.824;20.288;2023-07-30T02:23:49;4.07;;;3.30;;
13475;SDS011;6810;63.824;20.288;2023-07-30T02:26:37;3.97;;;3.10;;
13475;SDS011;6810;63.824;20.288;2023-07-30T02:29:24;3.53;;;3.13;;
13475;SDS011;6810;63.824;20.288;2023-07-30T02:32:11;3.67;;;3.30;;
13475;SDS011;6810;63.824;20.288;2023-07-30T02:34:58;6.00;;;3.30;;
13475;SDS011;6810;63.824;20.288;2023-07-30T02:37:46;4.13;;;3.30;;
13475;SDS011;6810;63.824;20.288;2023-07-30T02:40:33;3.30;;;3.00;;
13475;SDS011;6810;63.824;20.288;2023-07-30T02:43:20;4.20;;;3.80;;
13475;SDS011;6810;63.824;20.288;2023-07-30T02:46:07;4.10;;;3.80;;
13475;SDS011;6810;63.824;20.288;2023-07-30T02:48:54;3.73;;;3.07;;
13475;SDS011;6810;63.824;20.288;2023-07-30T02:51:41;3.67;;;3.37;;
13475;SDS011;6810;63.824;20.288;2023-07-30T02:54:28;4.90;;;3.23;;
13475;SDS011;6810;63.824;20.288;2023-07-30T02:57:15;3.50;;;3.20;;
13475;SDS011;6810;63.824;20.288;2023-07-30T03:00:03;3.50;;;3.20;;
13475;SDS011;6810;63.824;20.288;2023-07-30T03:02:50;4.47;;;3.70;;
13475;SDS011;6810;63.824;20.288;2023-07-30T03:05:37;3.40;;;3.10;;
13475;SDS011;6810;63.824;20.288;2023-07-30T03:08:28;4.80;;;3.53;;
13475;SDS011;6810;63.824;20.288;2023-07-30T03:11:15;3.40;;;3.10;;
13475;SDS011;6810;63.824;20.288;2023-07-30T03:14:02;3.47;;;3.17;;
13475;SDS011;6810;63.824;20.288;2023-07-30T03:16:49;4.03;;;3.43;;
13475;SDS011;6810;63.824;20.288;2023-07-30T03:19:37;3.47;;;3.17;;
13475;SDS011;6810;63.824;20.288;2023-07-30T03:22:24;4.30;;;3.07;;
13475;SDS011;6810;63.824;20.288;2023-07-30T03:25:11;3.80;;;3.07;;
13475;SDS011;6810;63.824;20.288;2023-07-30T03:27:59;4.23;;;3.10;;
13475;SDS011;6810;63.824;20.288;2023-07-30T03:30:46;3.23;;;3.03;;
13475;SDS011;6810;63.824;20.288;2023-07-30T03:33:33;5.37;;;3.33;;
13475;SDS011;6810;63.824;20.288;2023-07-30T03:36:20;3.40;;;3.10;;
13475;SDS011;6810;63.824;20.288;2023-07-30T03:39:08;3.20;;;3.00;;
13475;SDS011;6810;63.824;20.288;2023-07-30T03:41:55;3.87;;;3.37;;
13475;SDS011;6810;63.824;20.288;2023-07-30T03:44:42;3.30;;;3.00;;
13475;SDS011;6810;63.824;20.288;2023-07-30T03:47:30;3.73;;;2.97;;
13475;SDS011;6810;63.824;20.288;2023-07-30T03:50:17;3.30;;;3.00;;
13475;SDS011;6810;63.824;20.288;2023-07-30T03:53:04;2.90;;;2.70;;
13475;SDS011;6810;63.824;20.288;2023-07-30T03:55:52;3.40;;;3.10;;
13475;SDS011;6810;63.824;20.288;2023-07-30T03:58:41;3.83;;;3.43;;
13475;SDS011;6810;63.824;20.288;2023-07-30T04:01:28;3.17;;;2.87;;
13475;SDS011;6810;63.824;20.288;2023-07-30T04:04:15;3.57;;;3.23;;
13475;SDS011;6810;63.824;20.288;2023-07-30T04:07:02;3.10;;;2.90;;
13475;SDS011;6810;63.824;20.288;2023-07-30T04:09:49;3.10;;;2.90;;
13475;SDS011;6810;63.824;20.288;2023-07-30T04:12:36;2.90;;;2.70;;
13475;SDS011;6810;63.824;20.288;2023-07-30T04:15:23;3.30;;;2.97;;
13475;SDS011;6810;63.824;20.288;2023-07-30T04:18:10;2.80;;;2.50;;
13475;SDS011;6810;63.824;20.288;2023-07-30T04:20:57;2.80;;;2.57;;
13475;SDS011;6810;63.824;20.288;2023-07-30T04:23:44;2.80;;;2.60;;
13475;SDS011;6810;63.824;20.288;2023-07-30T04:26:33;3.23;;;2.50;;
13475;SDS011;6810;63.824;20.288;2023-07-30T04:29:21;2.80;;;2.60;;
13475;SDS011;6810;63.824;20.288;2023-07-30T04:32:08;2.73;;;2.53;;
13475;SDS011;6810;63.824;20.288;2023-07-30T04:34:56;3.07;;;2.30;;
13475;SDS011;6810;63.824;20.288;2023-07-30T04:37:42;2.40;;;2.20;;
13475;SDS011;6810;63.824;20.288;2023-07-30T04:40:29;2.50;;;2.30;;
13475;SDS011;6810;63.824;20.288;2023-07-30T04:43:17;2.30;;;2.10;;
13475;SDS011;6810;63.824;20.288;2023-07-30T04:46:04;2.30;;;2.10;;
13475;SDS011;6810;63.824;20.288;2023-07-30T04:48:51;2.50;;;2.30;;
13475;SDS011;6810;63.824;20.288;2023-07-30T04:51:39;2.10;;;2.00;;
13475;SDS011;6810;63.824;20.288;2023-07-30T04:54:26;2.00;;;1.90;;
13475;SDS011;6810;63.824;20.288;2023-07-30T04:57:13;1.90;;;1.80;;
13475;SDS011;6810;63.824;20.288;2023-07-30T05:00:00;2.37;;;1.90;;
13475;SDS011;6810;63.824;20.288;2023-07-30T05:02:48;2.00;;;1.87;;
13475;SDS011;6810;63.824;20.288;2023-07-30T05:05:35;2.43;;;1.70;;
13475;SDS011;6810;63.824;20.288;2023-07-30T05:08:22;1.90;;;1.70;;
13475;SDS011;6810;63.824;20.288;2023-07-30T05:11:09;1.97;;;1.77;;
13475;SDS011;6810;63.824;20.288;2023-07-30T05:13:56;2.50;;;1.90;;
13475;SDS011;6810;63.824;20.288;2023-07-30T05:16:43;1.80;;;1.70;;
13475;SDS011;6810;63.824;20.288;2023-07-30T05:19:30;1.83;;;1.73;;
13475;SDS011;6810;63.824;20.288;2023-07-30T05:22:17;1.90;;;1.80;;
13475;SDS011;6810;63.824;20.288;2023-07-30T05:25:04;1.77;;;1.67;;
13475;SDS011;6810;63.824;20.288;2023-07-30T05:27:52;1.90;;;1.80;;
13475;SDS011;6810;63.824;20.288;2023-07-30T05:30:39;1.70;;;1.60;;
13475;SDS011;6810;63.824;20.288;2023-07-30T05:33:26;1.47;;;1.37;;
13475;SDS011;6810;63.824;20.288;2023-07-30T05:36:13;1.67;;;1.57;;
13475;SDS011;6810;63.824;20.288;2023-07-30T05:39:00;1.60;;;1.50;;
13475;SDS011;6810;63.824;20.288;2023-07-30T05:41:47;1.57;;;1.47;;
13475;SDS011;6810;63.824;20.288;2023-07-30T05:44:34;1.80;;;1.20;;
13475;SDS011;6810;63.824;20.288;2023-07-30T05:47:21;1.40;;;1.30;;
13475;SDS011;6810;63.824;20.288;2023-07-30T05:50:08;1.50;;;1.40;;
13475;SDS011;6810;63.824;20.288;2023-07-30T05:52:55;1.37;;;1.27;;
13475;SDS011;6810;63.824;20.288;2023-07-30T05:55:42;1.60;;;1.50;;
13475;SDS011;6810;63.824;20.288;2023-07-30T05:58:30;1.00;;;1.00;;
13475;SDS011;6810;63.824;20.288;2023-07-30T06:01:17;0.73;;;0.73;;
13475;SDS011;6810;63.824;20.288;2023-07-30T06:04:04;0.93;;;0.83;;
13475;SDS011;6810;63.824;20.288;2023-07-30T06:06:52;1.00;;;1.00;;
13475;SDS011;6810;63.824;20.288;2023-07-30T06:09:39;0.73;;;0.70;;
13475;SDS011;6810;63.824;20.288;2023-07-30T06:12:26;0.90;;;0.90;;
13475;SDS011;6810;63.824;20.288;2023-07-30T06:15:13;0.80;;;0.80;;
13475;SDS011;6810;63.824;20.288;2023-07-30T06:18:01;0.80;;;0.80;;
13475;SDS011;6810;63.824;20.288;2023-07-30T06:20:48;1.03;;;0.97;;
13475;SDS011;6810;63.824;20.288;2023-07-30T06:23:36;1.10;;;0.90;;
13475;SDS011;6810;63.824;20.288;2023-07-30T06:26:23;0.80;;;0.80;;
13475;SDS011;6810;63.824;20.288;2023-07-30T06:29:10;0.90;;;0.90;;
13475;SDS011;6810;63.824;20.288;2023-07-30T06:31:57;0.70;;;0.70;;
13475;SDS011;6810;63.824;20.288;2023-07-30T06:34:44;0.70;;;0.60;;
13475;SDS011;6810;63.824;20.288;2023-07-30T06:37:31;0.90;;;0.90;;
13475;SDS011;6810;63.824;20.288;2023-07-30T06:40:18;1.33;;;0.87;;
13475;SDS011;6810;63.824;20.288;2023-07-30T06:43:05;1.50;;;0.80;;
13475;SDS011;6810;63.824;20.288;2023-07-30T06:45:53;1.50;;;0.70;;
13475;SDS011;6810;63.824;20.288;2023-07-30T06:48:40;0.53;;;0.53;;
13475;SDS011;6810;63.824;20.288;2023-07-30T06:51:27;0.70;;;0.70;;
13475;SDS011;6810;63.824;20.288;2023-07-30T06:54:14;0.80;;;0.80;;
13475;SDS011;6810;63.824;20.288;2023-07-30T06:57:05;0.90;;;0.60;;
13475;SDS011;6810;63.824;20.288;2023-07-30T06:59:52;1.00;;;1.00;;
13475;SDS011;6810;63.824;20.288;2023-07-30T07:02:39;0.90;;;0.90;;
13475;SDS011;6810;63.824;20.288;2023-07-30T07:05:26;0.93;;;0.83;;
13475;SDS011;6810;63.824;20.288;2023-07-30T07:08:13;0.87;;;0.87;;
13475;SDS011;6810;63.824;20.288;2023-07-30T07:11:00;1.30;;;0.80;;
13475;SDS011;6810;63.824;20.288;2023-07-30T07:13:47;0.77;;;0.77;;
13475;SDS011;6810;63.824;20.288;2023-07-30T07:16:34;1.43;;;1.17;;
13475;SDS011;6810;63.824;20.288;2023-07-30T07:19:21;0.80;;;0.80;;
13475;SDS011;6810;63.824;20.288;2023-07-30T07:22:09;0.87;;;0.80;;
13475;SDS011;6810;63.824;20.288;2023-07-30T07:24:56;1.07;;;0.97;;
13475;SDS011;6810;63.824;20.288;2023-07-30T07:27:43;1.07;;;1.00;;
13475;SDS011;6810;63.824;20.288;2023-07-30T07:30:30;0.83;;;0.83;;
13475;SDS011;6810;63.824;20.288;2023-07-30T07:33:17;1.00;;;0.83;;
13475;SDS011;6810;63.824;20.288;2023-07-30T07:36:05;0.90;;;0.90;;
13475;SDS011;6810;63.824;20.288;2023-07-30T07:38:53;1.00;;;1.00;;
13475;SDS011;6810;63.824;20.288;2023-07-30T07:41:40;1.07;;;0.97;;
13475;SDS011;6810;63.824;20.288;2023-07-30T07:44:27;0.90;;;0.90;;
13475;SDS011;6810;63.824;20.288;2023-07-30T07:47:14;1.20;;;1.00;;
13475;SDS011;6810;63.824;20.288;2023-07-30T07:50:02;1.00;;;0.90;;
13475;SDS011;6810;63.824;20.288;2023-07-30T07:52:49;1.07;;;0.97;;
13475;SDS011;6810;63.824;20.288;2023-07-30T07:55:36;0.93;;;0.93;;
13475;SDS011;6810;63.824;20.288;2023-07-30T07:58:23;1.30;;;1.20;;
13475;SDS011;6810;63.824;20.288;2023-07-30T08:01:10;1.00;;;1.00;;
13475;SDS011;6810;63.824;20.288;2023-07-30T08:03:37;1.13;;;1.03;;
13475;SDS011;6810;63.824;20.288;2023-07-30T08:06:05;0.90;;;0.90;;
13475;SDS011;6810;63.824;20.288;2023-07-30T08:08:33;1.40;;;1.00;;
13475;SDS011;6810;63.824;20.288;2023-07-30T08:11:04;0.90;;;0.90;;
13475;SDS011;6810;63.824;20.288;2023-07-30T08:13:35;1.30;;;1.20;;
13475;SDS011;6810;63.824;20.288;2023-07-30T08:16:02;1.50;;;1.13;;
13475;SDS011;6810;63.824;20.288;2023-07-30T08:18:29;1.00;;;0.90;;
13475;SDS011;6810;63.824;20.288;2023-07-30T08:20:57;1.10;;;1.10;;
13475;SDS011;6810;63.824;20.288;2023-07-30T08:23:24;0.80;;;0.80;;
13475;SDS011;6810;63.824;20.288;2023-07-30T08:25:51;1.13;;;1.03;;
13475;SDS011;6810;63.824;20.288;2023-07-30T08:28:18;1.17;;;1.10;;
13475;SDS011;6810;63.824;20.288;2023-07-30T08:30:46;0.97;;;0.97;;
13475;SDS011;6810;63.824;20.288;2023-07-30T08:33:13;1.10;;;1.00;;
13475;SDS011;6810;63.824;20.288;2023-07-30T08:35:40;1.23;;;1.13;;
13475;SDS011;6810;63.824;20.288;2023-07-30T08:38:07;1.00;;;1.00;;
13475;SDS011;6810;63.824;20.288;2023-07-30T08:40:35;1.17;;;1.17;;
13475;SDS011;6810;63.824;20.288;2023-07-30T08:43:02;1.50;;;1.20;;
13475;SDS011;6810;63.824;20.288;2023-07-30T08:45:30;1.10;;;1.10;;
13475;SDS011;6810;63.824;20.288;2023-07-30T08:47:58;1.30;;;1.20;;
13475;SDS011;6810;63.824;20.288;2023-07-30T08:50:25;1.20;;;1.10;;
13475;SDS011;6810;63.824;20.288;2023-07-30T08:52:54;1.30;;;1.20;;
13475;SDS011;6810;63.824;20.288;2023-07-30T08:55:22;1.17;;;1.10;;
13475;SDS011;6810;63.824;20.288;2023-07-30T08:57:50;2.10;;;1.30;;
13475;SDS011;6810;63.824;20.288;2023-07-30T09:00:18;1.10;;;1.10;;
13475;SDS011;6810;63.824;20.288;2023-07-30T09:02:51;1.10;;;1.10;;
13475;SDS011;6810;63.824;20.288;2023-07-30T09:05:20;1.70;;;1.50;;
13475;SDS011;6810;63.824;20.288;2023-07-30T09:07:48;2.07;;;1.50;;
13475;SDS011;6810;63.824;20.288;2023-07-30T09:10:15;1.57;;;1.47;;
13475;SDS011;6810;63.824;20.288;2023-07-30T09:12:42;1.60;;;1.50;;
13475;SDS011;6810;63.824;20.288;2023-07-30T09:15:13;1.43;;;1.33;;
13475;SDS011;6810;63.824;20.288;2023-07-30T09:17:40;1.60;;;1.50;;
13475;SDS011;6810;63.824;20.288;2023-07-30T09:20:07;1.70;;;1.60;;
13475;SDS011;6810;63.824;20.288;2023-07-30T09:22:34;1.87;;;1.67;;
13475;SDS011;6810;63.824;20.288;2023-07-30T09:25:07;1.50;;;1.40;;
13475;SDS011;6810;63.824;20.288;2023-07-30T09:27:35;1.93;;;1.83;;
13475;SDS011;6810;63.824;20.288;2023-07-30T09:30:02;2.50;;;1.53;;
13475;SDS011;6810;63.824;20.288;2023-07-30T09:32:33;1.70;;;1.60;;
13475;SDS011;6810;63.824;20.288;2023-07-30T09:37:35;1.80;;;1.70;;
13475;SDS011;6810;63.824;20.288;2023-07-30T09:40:05;2.20;;;1.63;;
13475;SDS011;6810;63.824;20.288;2023-07-30T09:42:33;1.90;;;1.70;;
13475;SDS011;6810;63.824;20.288;2023-07-30T09:45:04;1.63;;;1.53;;
13475;SDS011;6810;63.824;20.288;2023-07-30T09:47:36;1.57;;;1.47;;
13475;SDS011;6810;63.824;20.288;2023-07-30T09:50:04;2.00;;;1.37;;
13475;SDS011;6810;63.824;20.288;2023-07-30T09:52:31;1.40;;;1.30;;
13475;SDS011;6810;63.824;20.288;2023-07-30T09:54:59;1.73;;;1.40;;
13475;SDS011;6810;63.824;20.288;2023-07-30T09:57:27;1.10;;;1.10;;
13475;SDS011;6810;63.824;20.288;2023-07-30T09:59:54;1.30;;;1.23;;
13475;SDS011;6810;63.824;20.288;2023-07-30T10:02:21;1.50;;;1.40;;
13475;SDS011;6810;63.824;20.288;2023-07-30T10:04:51;1.20;;;1.20;;
13475;SDS011;6810;63.824;20.288;2023-07-30T10:07:23;1.43;;;1.33;;
13475;SDS011;6810;63.824;20.288;2023-07-30T10:09:54;1.50;;;1.40;;
13475;SDS011;6810;63.824;20.288;2023-07-30T10:12:25;1.97;;;1.40;;
13475;SDS011;6810;63.824;20.288;2023-07-30T10:14:57;1.33;;;1.30;;
13475;SDS011;6810;63.824;20.288;2023-07-30T10:17:24;1.10;;;1.10;;
13475;SDS011;6810;63.824;20.288;2023-07-30T10:19:51;1.60;;;1.30;;
13475;SDS011;6810;63.824;20.288;2023-07-30T10:27:25;1.40;;;1.30;;
13475;SDS011;6810;63.824;20.288;2023-07-30T10:30:15;1.30;;;1.30;;
13475;SDS011;6810;63.824;20.288;2023-07-30T10:41:10;1.50;;;1.40;;
13475;SDS011;6810;63.824;20.288;2023-07-30T10:43:41;1.03;;;1.03;;
13475;SDS011;6810;63.824;20.288;2023-07-30T10:46:12;1.30;;;1.20;;
13475;SDS011;6810;63.824;20.288;2023-07-30T10:48:41;1.60;;;1.50;;
13475;SDS011;6810;63.824;20.288;2023-07-30T10:51:10;2.27;;;1.40;;
13475;SDS011;6810;63.824;20.288;2023-07-30T10:53:42;1.53;;;1.40;;
13475;SDS011;6810;63.824;20.288;2023-07-30T10:56:10;1.50;;;1.40;;
13475;SDS011;6810;63.824;20.288;2023-07-30T10:58:38;1.60;;;1.50;;
13475;SDS011;6810;63.824;20.288;2023-07-30T11:01:06;1.47;;;1.37;;
13475;SDS011;6810;63.824;20.288;2023-07-30T11:03:35;1.50;;;1.40;;
13475;SDS011;6810;63.824;20.288;2023-07-30T11:06:05;1.77;;;1.30;;
13475;SDS011;6810;63.824;20.288;2023-07-30T11:11:05;1.40;;;1.30;;
13475;SDS011;6810;63.824;20.288;2023-07-30T11:13:40;1.50;;;1.40;;
13475;SDS011;6810;63.824;20.288;2023-07-30T11:16:09;1.87;;;1.40;;
13475;SDS011;6810;63.824;20.288;2023-07-30T11:18:37;1.60;;;1.50;;
13475;SDS011;6810;63.824;20.288;2023-07-30T11:21:06;1.60;;;1.50;;
13475;SDS011;6810;63.824;20.288;2023-07-30T11:23:35;1.00;;;1.00;;
13475;SDS011;6810;63.824;20.288;2023-07-30T11:26:04;1.40;;;1.30;;
13475;SDS011;6810;63.824;20.288;2023-07-30T11:28:33;1.30;;;1.20;;
13475;SDS011;6810;63.824;20.288;2023-07-30T11:31:05;1.20;;;1.20;;
13475;SDS011;6810;63.824;20.288;2023-07-30T11:33:43;1.33;;;1.23;;
13475;SDS011;6810;63.824;20.288;2023-07-30T11:36:15;1.30;;;1.20;;
13475;SDS011;6810;63.824;20.288;2023-07-30T11:38:45;0.90;;;0.90;;
13475;SDS011;6810;63.824;20.288;2023-07-30T11:41:12;1.37;;;1.27;;
13475;SDS011;6810;63.824;20.288;2023-07-30T11:43:42;1.30;;;1.20;;
13475;SDS011;6810;63.824;20.288;2023-07-30T11:46:13;1.20;;;1.07;;
13475;SDS011;6810;63.824;20.288;2023-07-30T11:48:44;1.10;;;1.00;;
13475;SDS011;6810;63.824;20.288;2023-07-30T11:53:46;1.00;;;1.00;;
13475;SDS011;6810;63.824;20.288;2023-07-30T11:56:28;1.00;;;1.00;;
13475;SDS011;6810;63.824;20.288;2023-07-30T11:59:06;0.97;;;0.97;;
13475;SDS011;6810;63.824;20.288;2023-07-30T12:01:34;1.03;;;1.03;;
13475;SDS011;6810;63.824;20.288;2023-07-30T12:04:04;1.23;;;1.23;;
13475;SDS011;6810;63.824;20.288;2023-07-30T12:06:43;1.33;;;1.10;;
13475;SDS011;6810;63.824;20.288;2023-07-30T12:09:23;1.50;;;1.27;;
13475;SDS011;6810;63.824;20.288;2023-07-30T12:11:54;1.40;;;1.30;;
13475;SDS011;6810;63.824;20.288;2023-07-30T12:14:28;1.13;;;1.13;;
13475;SDS011;6810;63.824;20.288;2023-07-30T12:17:08;1.10;;;1.10;;
13475;SDS011;6810;63.824;20.288;2023-07-30T12:19:36;0.90;;;0.90;;
13475;SDS011;6810;63.824;20.288;2023-07-30T12:22:03;1.30;;;1.20;;
13475;SDS011;6810;63.824;20.288;2023-07-30T12:24:30;1.10;;;1.10;;
13475;SDS011;6810;63.824;20.288;2023-07-30T12:27:01;1.07;;;1.07;;
13475;SDS011;6810;63.824;20.288;2023-07-30T12:29:28;1.10;;;1.10;;
13475;SDS011;6810;63.824;20.288;2023-07-30T12:31:55;1.40;;;1.13;;
13475;SDS011;6810;63.824;20.288;2023-07-30T12:34:23;1.37;;;1.27;;
13475;SDS011;6810;63.824;20.288;2023-07-30T12:36:51;1.00;;;1.00;;
13475;SDS011;6810;63.824;20.288;2023-07-30T12:39:18;1.50;;;1.40;;
13475;SDS011;6810;63.824;20.288;2023-07-30T12:41:45;2.43;;;1.37;;
13475;SDS011;6810;63.824;20.288;2023-07-30T12:44:12;1.80;;;1.20;;
13475;SDS011;6810;63.824;20.288;2023-07-30T12:46:39;2.10;;;1.40;;
13475;SDS011;6810;63.824;20.288;2023-07-30T12:49:06;1.50;;;1.40;;
13475;SDS011;6810;63.824;20.288;2023-07-30T12:51:33;1.30;;;1.30;;
13475;SDS011;6810;63.824;20.288;2023-07-30T12:54:01;1.20;;;1.20;;
13475;SDS011;6810;63.824;20.288;2023-07-30T12:56:28;1.47;;;1.37;;
13475;SDS011;6810;63.824;20.288;2023-07-30T12:58:55;1.30;;;1.20;;
13475;SDS011;6810;63.824;20.288;2023-07-30T13:01:22;1.30;;;1.23;;
13475;SDS011;6810;63.824;20.288;2023-07-30T13:03:50;1.30;;;1.30;;
13475;SDS011;6810;63.824;20.288;2023-07-30T13:06:18;1.40;;;1.30;;
13475;SDS011;6810;63.824;20.288;2023-07-30T13:08:45;1.00;;;1.00;;
13475;SDS011;6810;63.824;20.288;2023-07-30T13:11:12;1.20;;;1.20;;
13475;SDS011;6810;63.824;20.288;2023-07-30T13:13:39;1.43;;;1.33;;
13475;SDS011;6810;63.824;20.288;2023-07-30T13:16:06;1.50;;;1.40;;
13475;SDS011;6810;63.824;20.288;2023-07-30T13:18:33;1.43;;;1.43;;
13475;SDS011;6810;63.824;20.288;2023-07-30T13:21:00;1.50;;;1.40;;
13475;SDS011;6810;63.824;20.288;2023-07-30T13:23:27;1.33;;;1.30;;
13475;SDS011;6810;63.824;20.288;2023-07-30T13:25:55;1.73;;;1.30;;
13475;SDS011;6810;63.824;20.288;2023-07-30T13:28:22;1.63;;;1.53;;
13475;SDS011;6810;63.824;20.288;2023-07-30T13:30:49;1.60;;;1.50;;
13475;SDS011;6810;63.824;20.288;2023-07-30T13:33:18;2.37;;;1.57;;
13475;SDS011;6810;63.824;20.288;2023-07-30T13:35:45;1.50;;;1.40;;
13475;SDS011;6810;63.824;20.288;2023-07-30T13:38:12;1.67;;;1.57;;
13475;SDS011;6810;63.824;20.288;2023-07-30T13:40:39;1.63;;;1.53;;
13475;SDS011;6810;63.824;20.288;2023-07-30T13:43:06;1.90;;;1.80;;
13475;SDS011;6810;63.824;20.288;2023-07-30T13:45:33;1.53;;;1.43;;
13475;SDS011;6810;63.824;20.288;2023-07-30T13:48:00;1.70;;;1.60;;
13475;SDS011;6810;63.824;20.288;2023-07-30T13:50:28;2.07;;;1.97;;
13475;SDS011;6810;63.824;20.288;2023-07-30T13:52:55;1.93;;;1.83;;
13475;SDS011;6810;63.824;20.288;2023-07-30T13:55:22;2.20;;;2.10;;
13475;SDS011;6810;63.824;20.288;2023-07-30T13:57:49;2.37;;;2.17;;
13475;SDS011;6810;63.824;20.288;2023-07-30T14:00:16;2.33;;;2.23;;
13475;SDS011;6810;63.824;20.288;2023-07-30T14:02:43;2.20;;;2.10;;
13475;SDS011;6810;63.824;20.288;2023-07-30T14:05:10;2.27;;;2.17;;
13475;SDS011;6810;63.824;20.288;2023-07-30T14:07:37;2.30;;;2.20;;
13475;SDS011;6810;63.824;20.288;2023-07-30T14:10:07;2.30;;;2.20;;
13475;SDS011;6810;63.824;20.288;2023-07-30T14:12:34;2.67;;;2.47;;
13475;SDS011;6810;63.824;20.288;2023-07-30T14:15:01;2.63;;;2.53;;
13475;SDS011;6810;63.824;20.288;2023-07-30T14:17:29;2.50;;;2.30;;
13475;SDS011;6810;63.824;20.288;2023-07-30T14:19:56;2.10;;;2.00;;
13475;SDS011;6810;63.824;20.288;2023-07-30T14:22:23;2.30;;;2.20;;
13475;SDS011;6810;63.824;20.288;2023-07-30T14:24:50;2.70;;;2.50;;
13475;SDS011;6810;63.824;20.288;2023-07-30T14:27:17;2.13;;;2.03;;
13475;SDS011;6810;63.824;20.288;2023-07-30T14:29:44;2.10;;;2.00;;
13475;SDS011;6810;63.824;20.288;2023-07-30T14:32:11;2.60;;;2.40;;
13475;SDS011;6810;63.824;20.288;2023-07-30T14:34:39;2.73;;;2.30;;
13475;SDS011;6810;63.824;20.288;2023-07-30T14:37:06;2.67;;;2.57;;
13475;SDS011;6810;63.824;20.288;2023-07-30T14:39:36;2.50;;;2.30;;
13475;SDS011;6810;63.824;20.288;2023-07-30T14:42:03;2.53;;;2.33;;
13475;SDS011;6810;63.824;20.288;2023-07-30T14:44:30;2.70;;;2.50;;
13475;SDS011;6810;63.824;20.288;2023-07-30T14:46:57;2.80;;;2.60;;
13475;SDS011;6810;63.824;20.288;2023-07-30T14:49:25;2.40;;;2.30;;
13475;SDS011;6810;63.824;20.288;2023-07-30T14:51:52;2.50;;;2.30;;
13475;SDS011;6810;63.824;20.288;2023-07-30T14:54:21;2.60;;;2.40;;
13475;SDS011;6810;63.824;20.288;2023-07-30T14:56:48;2.60;;;2.40;;
13475;SDS011;6810;63.824;20.288;2023-07-30T14:59:15;2.87;;;2.67;;
13475;SDS011;6810;63.824;20.288;2023-07-30T15:01:42;2.50;;;2.30;;
13475;SDS011;6810;63.824;20.288;2023-07-30T15:04:09;2.40;;;2.20;;
13475;SDS011;6810;63.824;20.288;2023-07-30T15:06:36;2.63;;;2.43;;
13475;SDS011;6810;63.824;20.288;2023-07-30T15:09:04;2.60;;;2.50;;
13475;SDS011;6810;63.824;20.288;2023-07-30T15:11:31;2.20;;;2.10;;
13475;SDS011;6810;63.824;20.288;2023-07-30T15:13:58;2.23;;;2.13;;
13475;SDS011;6810;63.824;20.288;2023-07-30T15:16:25;2.43;;;2.30;;
13475;SDS011;6810;63.824;20.288;2023-07-30T15:18:52;2.10;;;2.00;;
13475;SDS011;6810;63.824;20.288;2023-07-30T15:21:19;2.97;;;2.40;;
13475;SDS011;6810;63.824;20.288;2023-07-30T15:23:46;2.57;;;2.37;;
13475;SDS011;6810;63.824;20.288;2023-07-30T15:26:13;2.73;;;2.53;;
13475;SDS011;6810;63.824;20.288;2023-07-30T15:28:42;2.20;;;2.10;;
13475;SDS011;6810;63.824;20.288;2023-07-30T15:31:09;2.43;;;2.23;;
13475;SDS011;6810;63.824;20.288;2023-07-30T15:33:36;2.50;;;2.30;;
13475;SDS011;6810;63.824;20.288;2023-07-30T15:36:04;2.13;;;2.03;;
13475;SDS011;6810;63.824;20.288;2023-07-30T15:38:32;3.67;;;2.50;;
13475;SDS011;6810;63.824;20.288;2023-07-30T15:40:59;3.80;;;2.60;;
13475;SDS011;6810;63.824;20.288;2023-07-30T15:43:26;2.53;;;2.33;;
13475;SDS011;6810;63.824;20.288;2023-07-30T15:45:53;2.33;;;2.23;;
13475;SDS011;6810;63.824;20.288;2023-07-30T15:48:28;2.67;;;2.47;;
13475;SDS011;6810;63.824;20.288;2023-07-30T15:51:00;3.10;;;2.47;;
13475;SDS011;6810;63.824;20.288;2023-07-30T15:53:28;2.70;;;2.50;;
13475;SDS011;6810;63.824;20.288;2023-07-30T15:55:59;2.70;;;2.60;;
13475;SDS011;6810;63.824;20.288;2023-07-30T15:58:26;2.53;;;2.33;;
13475;SDS011;6810;63.824;20.288;2023-07-30T16:00:53;2.70;;;2.50;;